Avenel, NJ

9:49 AM EDT on September 01, 2014 (GMT -0400)
Avenel St. | Change Station
CLOSE
Current Station
Personal Weather Station
Location: Avenel, NJ
Elevation: 43 ft
Nearby Weather Stations

Elev 43 ft 40.58 °N, 74.27 °W | Updated 8 minutes ago

Scattered Clouds
Scattered Clouds
80.6 °F
Feels Like 86 °F
N
0.0
Wind Variable Wind from SW

Today
High -- | Low -- °F
--% Chance of Precip.
Yesterday
High -- | Low -- °F
Precip. -- in
6:24 AM 7:29 PM
Waxing Crescent, 41% visible
Pressure 30.02 in
Visibility 10.0 miles
Clouds Scattered Clouds 9000 ft
Heat Index 86 °F
Dew Point 74 °F
Humidity 80%
Rainfall 0.00 in
Snow Depth Not available.
UV 2.9 out of 12
Pollen 5.00 out of 12
Air Quality Not available.
Flu Activity Not available.
METAR KLDJ 011335Z AUTO 00000KT 10SM SCT090 29/24 A3002 RMK AO2 T02870239

More Conditions Fewer Conditions

Pressure 30.02 in
Visibility 10.0 miles
Clouds Scattered Clouds 9000 ft
Heat Index 86 °F
Dew Point 74 °F
Humidity 80%
Rainfall 0.00 in
Snow Depth Not available.
UV 2.9 out of 12
Pollen 5.00 out of 12
Air Quality Not available.
Flu Activity Not available.
METAR KLDJ 011335Z AUTO 00000KT 10SM SCT090 29/24 A3002 RMK AO2 T02870239

More Conditions Fewer Conditions

10-Day Weather Forecast

Almanac

Astronomy

Sep. 01, 2014 Rise Set
Actual Time 6:24 AM EDT 7:29 PM EDT
Civil Twilight 5:56 AM EDT 7:57 PM EDT
Nautical Twilight 5:22 AM EDT 8:30 PM EDT
Astronomical Twilight 4:47 AM EDT 9:05 PM EDT
Moon 1:09 PM EDT 11:26 PM EDT
Length of Visible Light 14h 01m
Length of Day
13h 04m
Tomorrow will be 2m 34s shorter.
Waxing Crescent, 41% of the Moon is Illuminated
Today
Waxing Crescent
Sep 2
First Quarter
Sep 8
Full
Sep 15
Last Quarter
Sep 24
New

Today's Extremes

State Highs State Lows

Community

WunderPhotos

Upload Photos

1,749,222 photos uploaded!

Nearby

Snow Depth

Station Depth Elevation
No new snow has been reported.

Earthquake Activity

City Distance Mag. Time & Date
No recent earthquake activity has been reported nearby.
Minimum magnitude displayed is 2.5.

Coastal Water Temperatures

Place Temperature
Sandy Hook, NJ 75.9 °F
The Battery, NY 75.0 °F
Bergen Point West Reach, NJ 75.0 °F
Kings Point, NY 75.0 °F

Nearby Weather Stations